createdAt,value
2023-01-30T00:00:30.365Z,-0.56
2023-01-30T00:03:00.353Z,-0.56
2023-01-30T00:05:29.181Z,-0.56
2023-01-30T00:07:57.953Z,-0.53
2023-01-30T00:10:26.460Z,-0.56
2023-01-30T00:12:55.396Z,-0.54
2023-01-30T00:15:23.953Z,-0.52
2023-01-30T00:17:52.603Z,-0.51
2023-01-30T00:20:22.702Z,-0.50
2023-01-30T00:23:00.587Z,-0.50
2023-01-30T00:25:31.710Z,-0.49
2023-01-30T00:28:01.607Z,-0.48
2023-01-30T00:30:31.946Z,-0.43
2023-01-30T00:33:01.197Z,-0.45
2023-01-30T00:35:31.138Z,-0.43
2023-01-30T00:38:00.573Z,-0.44
2023-01-30T00:40:30.519Z,-0.43
2023-01-30T00:43:16.651Z,-0.38
2023-01-30T00:46:04.016Z,-0.42
2023-01-30T00:48:33.093Z,-0.44
2023-01-30T00:51:02.998Z,-0.41
2023-01-30T00:53:31.620Z,-0.42
2023-01-30T00:56:00.251Z,-0.44
2023-01-30T00:58:28.936Z,-0.41
2023-01-30T01:00:57.608Z,-0.42
2023-01-30T01:03:26.309Z,-0.38
2023-01-30T01:05:54.834Z,-0.37
2023-01-30T01:08:25.029Z,-0.36
2023-01-30T01:10:53.591Z,-0.37
2023-01-30T01:13:22.208Z,-0.38
2023-01-30T01:15:51.955Z,-0.36
2023-01-30T01:18:20.688Z,-0.39
2023-01-30T01:20:49.190Z,-0.36
2023-01-30T01:23:17.778Z,-0.37
2023-01-30T01:25:47.942Z,-0.37
2023-01-30T01:28:18.586Z,-0.37
2023-01-30T01:30:47.265Z,-0.38
2023-01-30T01:33:15.927Z,-0.42
2023-01-30T01:35:44.533Z,-0.44
2023-01-30T01:38:12.998Z,-0.45
2023-01-30T01:40:59.180Z,-0.46
2023-01-30T01:43:33.946Z,-0.44
2023-01-30T01:46:07.990Z,-0.45
2023-01-30T01:48:41.866Z,-0.46
2023-01-30T01:51:14.758Z,-0.47
2023-01-30T01:53:48.912Z,-0.49
2023-01-30T01:56:19.550Z,-0.48
2023-01-30T01:58:54.258Z,-0.50
2023-01-30T02:01:23.339Z,-0.51
2023-01-30T02:03:59.143Z,-0.52
2023-01-30T02:06:28.063Z,-0.53
2023-01-30T02:09:00.915Z,-0.57
2023-01-30T02:11:36.546Z,-0.59
2023-01-30T02:14:08.733Z,-0.62
2023-01-30T02:16:37.614Z,-0.61
2023-01-30T02:19:10.791Z,-0.60
2023-01-30T02:22:06.054Z,-0.57
2023-01-30T02:25:13.530Z,-0.59
2023-01-30T02:28:12.225Z,-0.61
2023-01-30T02:31:07.730Z,-0.57
2023-01-30T02:33:43.013Z,-0.57
2023-01-30T02:36:21.495Z,-0.55
2023-01-30T02:39:03.086Z,-0.54
2023-01-30T02:41:40.722Z,-0.55
2023-01-30T02:44:18.527Z,-0.53
2023-01-30T02:46:55.299Z,-0.50
2023-01-30T02:49:30.547Z,-0.49
2023-01-30T02:52:02.965Z,-0.48
2023-01-30T02:54:31.691Z,-0.51
2023-01-30T02:57:01.006Z,-0.52
2023-01-30T02:59:34.759Z,-0.55
2023-01-30T03:02:29.460Z,-0.54
2023-01-30T03:05:21.066Z,-0.57
2023-01-30T03:07:57.567Z,-0.58
2023-01-30T03:10:35.833Z,-0.61
2023-01-30T03:13:16.375Z,-0.62
2023-01-30T03:15:51.125Z,-0.66
2023-01-30T03:18:22.368Z,-0.63
2023-01-30T03:20:51.627Z,-0.66
2023-01-30T03:23:21.881Z,-0.66
2023-01-30T03:25:50.559Z,-0.65
2023-01-30T03:28:22.094Z,-0.67
2023-01-30T03:30:51.653Z,-0.62
2023-01-30T03:33:21.757Z,-0.64
2023-01-30T03:35:50.972Z,-0.64
2023-01-30T03:38:20.068Z,-0.66
2023-01-30T03:40:51.577Z,-0.66
2023-01-30T03:43:20.349Z,-0.68
2023-01-30T03:45:48.880Z,-0.68
2023-01-30T03:48:17.823Z,-0.67
2023-01-30T03:50:47.875Z,-0.69
2023-01-30T03:53:17.896Z,-0.69
2023-01-30T03:55:46.669Z,-0.71
2023-01-30T03:58:15.402Z,-0.75
2023-01-30T04:00:43.860Z,-0.76
2023-01-30T04:03:12.469Z,-0.82
2023-01-30T04:05:41.054Z,-0.85
2023-01-30T04:08:12.410Z,-0.89
2023-01-30T04:10:41.063Z,-0.88
2023-01-30T04:13:09.618Z,-0.86
2023-01-30T04:15:38.775Z,-0.88
2023-01-30T04:18:26.041Z,-0.83
2023-01-30T04:21:02.004Z,-0.80
2023-01-30T04:23:37.862Z,-0.79
2023-01-30T04:26:07.213Z,-0.79
2023-01-30T04:28:38.865Z,-0.76
2023-01-30T04:31:07.913Z,-0.75
2023-01-30T04:33:45.054Z,-0.75
2023-01-30T04:36:14.793Z,-0.76
2023-01-30T04:38:46.739Z,-0.72
2023-01-30T04:41:15.465Z,-0.72
2023-01-30T04:43:45.243Z,-0.72
2023-01-30T04:46:32.532Z,-0.74
2023-01-30T04:49:01.175Z,-0.73
2023-01-30T04:51:30.658Z,-0.72
2023-01-30T04:54:02.487Z,-0.73
2023-01-30T04:56:32.551Z,-0.74
2023-01-30T04:59:01.261Z,-0.76
2023-01-30T05:01:36.711Z,-0.76
2023-01-30T05:04:06.006Z,-0.80
2023-01-30T05:06:35.077Z,-0.83
2023-01-30T05:09:06.713Z,-0.81
2023-01-30T05:11:35.859Z,-0.83
2023-01-30T05:14:10.242Z,-0.84
2023-01-30T05:16:39.189Z,-0.85
2023-01-30T05:19:13.216Z,-0.87
2023-01-30T05:21:47.914Z,-0.87
2023-01-30T05:24:18.390Z,-0.89
2023-01-30T05:26:48.922Z,-0.90
2023-01-30T05:29:24.348Z,-0.92
2023-01-30T05:31:53.240Z,-0.91
2023-01-30T05:34:21.781Z,-0.92
2023-01-30T05:36:50.431Z,-0.92
2023-01-30T05:39:20.435Z,-0.93
2023-01-30T05:41:48.907Z,-0.92
2023-01-30T05:44:17.672Z,-0.91
2023-01-30T05:46:46.138Z,-0.94
2023-01-30T05:49:14.822Z,-0.94
2023-01-30T05:51:43.706Z,-0.94
2023-01-30T05:54:12.345Z,-0.96
2023-01-30T05:56:42.298Z,-0.92
2023-01-30T05:59:13.040Z,-0.94
2023-01-30T06:01:41.535Z,-0.95
2023-01-30T06:04:10.193Z,-0.97
2023-01-30T06:06:38.692Z,-0.97
2023-01-30T06:09:07.304Z,-0.99
2023-01-30T06:11:35.790Z,-0.99
2023-01-30T06:14:05.788Z,-1.00
2023-01-30T06:16:34.441Z,-1.00
2023-01-30T06:19:02.973Z,-0.99
2023-01-30T06:21:32.140Z,-0.99
2023-01-30T06:24:00.687Z,-0.98
2023-01-30T06:26:29.550Z,-0.97
2023-01-30T06:28:58.000Z,-0.97
2023-01-30T06:31:28.047Z,-0.95
2023-01-30T06:33:56.610Z,-0.96
2023-01-30T06:36:25.038Z,-0.95
2023-01-30T06:38:53.545Z,-0.93
2023-01-30T06:41:22.143Z,-0.92
2023-01-30T06:43:50.647Z,-0.92
2023-01-30T06:46:19.173Z,-0.89
2023-01-30T06:48:49.144Z,-0.88
2023-01-30T06:51:17.766Z,-0.85
2023-01-30T06:53:46.397Z,-0.87
2023-01-30T06:56:14.997Z,-0.84
2023-01-30T06:58:43.931Z,-0.83
2023-01-30T07:01:12.391Z,-0.86
2023-01-30T07:03:41.011Z,-0.86
2023-01-30T07:06:11.087Z,-0.87
2023-01-30T07:08:41.042Z,-0.89
2023-01-30T07:11:09.581Z,-0.89
2023-01-30T07:13:40.864Z,-0.90
2023-01-30T07:16:09.887Z,-0.87
2023-01-30T07:18:38.548Z,-0.87
2023-01-30T07:21:07.508Z,-0.88
2023-01-30T07:23:37.685Z,-0.90
2023-01-30T07:26:06.845Z,-0.91
2023-01-30T07:28:35.290Z,-0.90
2023-01-30T07:31:03.720Z,-0.90
2023-01-30T07:33:32.291Z,-0.89
2023-01-30T07:36:00.887Z,-0.87
2023-01-30T07:38:29.367Z,-0.87
2023-01-30T07:41:00.400Z,-0.88
2023-01-30T07:43:28.765Z,-0.85
2023-01-30T07:45:57.248Z,-0.85
2023-01-30T07:48:25.809Z,-0.82
2023-01-30T07:50:57.724Z,-0.86
2023-01-30T07:53:26.355Z,-0.86
2023-01-30T07:55:54.798Z,-0.84
2023-01-30T07:58:24.726Z,-0.87
2023-01-30T08:00:56.602Z,-0.86
2023-01-30T08:03:25.149Z,-0.87
2023-01-30T08:05:54.345Z,-0.84
2023-01-30T08:08:22.943Z,-0.83
2023-01-30T08:10:51.647Z,-0.81
2023-01-30T08:13:20.279Z,-0.79
2023-01-30T08:15:51.082Z,-0.76
2023-01-30T08:18:19.671Z,-0.73
2023-01-30T08:20:48.170Z,-0.72
2023-01-30T08:23:16.866Z,-0.74
2023-01-30T08:25:45.482Z,-0.71
2023-01-30T08:28:14.000Z,-0.72
2023-01-30T08:30:42.797Z,-0.71
2023-01-30T08:33:12.868Z,-0.72
2023-01-30T08:35:41.986Z,-0.72
2023-01-30T08:38:10.513Z,-0.71
2023-01-30T08:40:39.332Z,-0.70
2023-01-30T08:43:08.089Z,-0.69
2023-01-30T08:45:37.002Z,-0.67
2023-01-30T08:48:07.751Z,-0.70
2023-01-30T08:50:37.695Z,-0.71
2023-01-30T08:53:09.351Z,-0.70
2023-01-30T08:55:38.147Z,-0.71
2023-01-30T08:58:06.714Z,-0.70
2023-01-30T09:00:35.318Z,-0.71
2023-01-30T09:03:03.871Z,-0.73
2023-01-30T09:05:32.392Z,-0.75
2023-01-30T09:08:02.581Z,-0.72
2023-01-30T09:10:31.108Z,-0.70
2023-01-30T09:12:59.669Z,-0.71
2023-01-30T09:15:28.825Z,-0.73
2023-01-30T09:17:57.315Z,-0.75
2023-01-30T09:20:26.019Z,-0.74
2023-01-30T09:22:54.935Z,-0.73
2023-01-30T09:25:24.999Z,-0.71
2023-01-30T09:27:53.892Z,-0.73
2023-01-30T09:30:22.882Z,-0.74
2023-01-30T09:32:51.495Z,-0.77
2023-01-30T09:35:20.191Z,-0.74
2023-01-30T09:37:49.677Z,-0.74
2023-01-30T09:40:20.161Z,-0.73
2023-01-30T09:43:15.643Z,-0.73
2023-01-30T09:46:01.232Z,-0.75
2023-01-30T09:48:34.727Z,-0.74
2023-01-30T09:51:20.662Z,-0.72
2023-01-30T09:54:12.656Z,-0.68
2023-01-30T09:56:41.508Z,-0.65
2023-01-30T09:59:21.960Z,-0.65
2023-01-30T10:02:01.531Z,-0.61
2023-01-30T10:04:36.545Z,-0.65
2023-01-30T10:07:17.036Z,-0.61
2023-01-30T10:09:57.207Z,-0.61
2023-01-30T10:12:47.520Z,-0.60
2023-01-30T10:15:50.552Z,-0.59
2023-01-30T10:19:08.403Z,-0.55
2023-01-30T10:21:51.225Z,-0.53
2023-01-30T10:24:36.947Z,-0.54
2023-01-30T10:27:15.945Z,-0.51
2023-01-30T10:29:53.451Z,-0.52
2023-01-30T10:32:29.386Z,-0.52
2023-01-30T10:35:02.067Z,-0.51
2023-01-30T10:37:35.115Z,-0.48
2023-01-30T10:40:19.312Z,-0.48
2023-01-30T10:42:57.644Z,-0.49
2023-01-30T10:45:36.559Z,-0.50
2023-01-30T10:48:42.488Z,-0.49
2023-01-30T10:51:24.569Z,-0.48
2023-01-30T10:54:01.904Z,-0.50
2023-01-30T10:56:38.884Z,-0.49
2023-01-30T10:59:30.584Z,-0.45
2023-01-30T11:02:05.882Z,-0.45
2023-01-30T11:04:44.900Z,-0.47
2023-01-30T11:07:15.281Z,-0.50
2023-01-30T11:09:46.363Z,-0.45
2023-01-30T11:12:15.193Z,-0.43
2023-01-30T11:15:00.007Z,-0.42
2023-01-30T11:17:35.579Z,-0.45
2023-01-30T11:20:13.638Z,-0.44
2023-01-30T11:22:48.739Z,-0.40
2023-01-30T11:25:20.585Z,-0.39
2023-01-30T11:27:56.291Z,-0.39
2023-01-30T11:30:30.963Z,-0.37
2023-01-30T11:33:18.262Z,-0.36
2023-01-30T11:36:00.328Z,-0.36
2023-01-30T11:38:30.820Z,-0.34
2023-01-30T11:41:08.964Z,-0.33
2023-01-30T11:43:41.043Z,-0.32
2023-01-30T11:46:12.095Z,-0.32
2023-01-30T11:49:04.356Z,-0.28
2023-01-30T11:51:49.090Z,-0.26
2023-01-30T11:54:21.708Z,-0.27
2023-01-30T11:56:54.565Z,-0.28
2023-01-30T11:59:28.091Z,-0.28
2023-01-30T12:02:06.261Z,-0.29
2023-01-30T12:04:35.548Z,-0.30
2023-01-30T12:07:17.890Z,-0.27
2023-01-30T12:09:50.711Z,-0.28
2023-01-30T12:12:33.741Z,-0.28
2023-01-30T12:15:21.771Z,-0.30
2023-01-30T12:18:00.411Z,-0.26
2023-01-30T12:20:41.805Z,-0.26
2023-01-30T12:23:14.851Z,-0.27
2023-01-30T12:26:08.435Z,-0.27
2023-01-30T12:28:47.959Z,-0.25
2023-01-30T12:31:26.625Z,-0.24
2023-01-30T12:34:05.676Z,-0.19
2023-01-30T12:36:51.957Z,-0.18
2023-01-30T12:39:42.961Z,-0.22
2023-01-30T12:42:29.310Z,-0.18
2023-01-30T12:45:17.286Z,-0.14
2023-01-30T12:48:07.295Z,-0.13
2023-01-30T12:50:57.630Z,-0.11
2023-01-30T12:53:34.449Z,-0.10
2023-01-30T12:56:51.314Z,-0.07
2023-01-30T12:59:29.246Z,0.01
2023-01-30T13:02:35.704Z,0.02
2023-01-30T13:05:22.992Z,0.04
2023-01-30T13:08:08.645Z,0.06
2023-01-30T13:10:42.890Z,0.07
2023-01-30T13:13:19.928Z,0.07
2023-01-30T13:15:59.165Z,0.08
2023-01-30T13:18:34.290Z,0.11
2023-01-30T13:21:14.246Z,0.07
2023-01-30T13:24:02.207Z,0.12
2023-01-30T13:26:36.758Z,0.11
2023-01-30T13:29:31.568Z,0.10
2023-01-30T13:32:05.111Z,0.15
2023-01-30T13:34:37.451Z,0.18
2023-01-30T13:37:14.678Z,0.11
2023-01-30T13:39:52.471Z,0.12
2023-01-30T13:42:30.119Z,0.13
2023-01-30T13:45:05.593Z,0.13
2023-01-30T13:47:47.974Z,0.13
2023-01-30T13:50:51.865Z,0.10
2023-01-30T13:53:32.196Z,0.11
2023-01-30T13:56:26.836Z,0.08
2023-01-30T13:59:08.710Z,0.06
2023-01-30T14:02:17.929Z,0.07
2023-01-30T14:04:53.335Z,0.05
2023-01-30T14:07:29.294Z,-0.01
2023-01-30T14:10:13.407Z,-0.03
2023-01-30T14:12:44.028Z,0.01
2023-01-30T14:15:29.675Z,0.02
2023-01-30T14:18:02.027Z,0.03
2023-01-30T14:20:34.029Z,0.09
2023-01-30T14:23:04.997Z,0.01
2023-01-30T14:25:46.324Z,0.01
2023-01-30T14:28:51.980Z,0.03
2023-01-30T14:31:56.314Z,-0.01
2023-01-30T14:34:46.473Z,0.02
2023-01-30T14:37:57.346Z,0.03
2023-01-30T14:40:45.733Z,0.02
2023-01-30T14:43:53.269Z,0.01
2023-01-30T14:46:54.566Z,0.05
2023-01-30T14:49:34.594Z,0.04
2023-01-30T14:52:06.711Z,-0.01
2023-01-30T14:54:45.287Z,0.00
2023-01-30T14:57:27.930Z,-0.01
2023-01-30T15:00:17.840Z,-0.01
2023-01-30T15:02:54.414Z,0.01
2023-01-30T15:05:30.354Z,0.02
2023-01-30T15:08:24.257Z,0.03
2023-01-30T15:11:08.157Z,-0.03
2023-01-30T15:14:15.186Z,-0.06
2023-01-30T15:17:10.715Z,-0.05
2023-01-30T15:20:34.124Z,-0.07
2023-01-30T15:23:29.064Z,-0.06
2023-01-30T15:26:25.430Z,-0.06
2023-01-30T15:29:06.018Z,-0.09
2023-01-30T15:31:39.549Z,-0.05
2023-01-30T15:34:21.877Z,-0.05
2023-01-30T15:36:50.866Z,-0.09
2023-01-30T15:39:22.296Z,-0.08
2023-01-30T15:41:57.539Z,-0.08
2023-01-30T15:44:39.423Z,-0.09
2023-01-30T15:47:20.215Z,-0.07
2023-01-30T15:49:58.769Z,-0.12
2023-01-30T15:52:37.968Z,-0.08
2023-01-30T15:55:08.387Z,-0.09
2023-01-30T15:57:41.537Z,-0.10
2023-01-30T16:00:20.014Z,-0.12
2023-01-30T16:02:48.960Z,-0.14
2023-01-30T16:05:19.875Z,-0.16
2023-01-30T16:07:50.530Z,-0.15
2023-01-30T16:10:23.304Z,-0.17
2023-01-30T16:12:56.486Z,-0.20
2023-01-30T16:15:30.011Z,-0.14
2023-01-30T16:18:05.707Z,-0.14
2023-01-30T16:20:55.264Z,-0.18
2023-01-30T16:23:33.290Z,-0.24
2023-01-30T16:26:05.829Z,-0.26
2023-01-30T16:28:36.639Z,-0.27
2023-01-30T16:31:07.310Z,-0.30
2023-01-30T16:33:37.902Z,-0.31
2023-01-30T16:36:08.153Z,-0.35
2023-01-30T16:38:43.388Z,-0.37
2023-01-30T16:41:33.971Z,-0.35
2023-01-30T16:44:19.271Z,-0.34
2023-01-30T16:46:52.206Z,-0.27
2023-01-30T16:49:27.192Z,-0.25
2023-01-30T16:52:05.045Z,-0.20
2023-01-30T16:54:36.369Z,-0.15
2023-01-30T16:57:06.034Z,-0.15
2023-01-30T16:59:38.095Z,-0.14
2023-01-30T17:02:08.459Z,-0.15
2023-01-30T17:04:41.516Z,-0.19
2023-01-30T17:07:36.359Z,-0.23
2023-01-30T17:10:48.247Z,-0.18
2023-01-30T17:13:33.480Z,-0.15
2023-01-30T17:16:33.203Z,-0.14
2023-01-30T17:19:02.481Z,-0.18
2023-01-30T17:21:33.176Z,-0.15
2023-01-30T17:24:04.147Z,-0.18
2023-01-30T17:26:33.507Z,-0.16
2023-01-30T17:29:02.435Z,-0.18
2023-01-30T17:31:39.906Z,-0.22
2023-01-30T17:34:12.541Z,-0.16
2023-01-30T17:36:42.083Z,-0.14
2023-01-30T17:39:19.106Z,-0.16
2023-01-30T17:41:51.291Z,-0.18
2023-01-30T17:44:23.065Z,-0.14
2023-01-30T17:46:58.831Z,-0.14
2023-01-30T17:49:30.746Z,-0.18
2023-01-30T17:52:02.649Z,-0.12
2023-01-30T17:54:38.046Z,-0.13
2023-01-30T17:57:10.041Z,-0.08
2023-01-30T17:59:40.454Z,-0.11
2023-01-30T18:02:12.714Z,-0.13
2023-01-30T18:04:46.828Z,-0.10
2023-01-30T18:07:18.487Z,-0.08
2023-01-30T18:09:51.335Z,-0.11
2023-01-30T18:12:22.786Z,-0.10
2023-01-30T18:14:55.744Z,-0.09
2023-01-30T18:17:33.576Z,-0.08
2023-01-30T18:20:11.649Z,-0.09
2023-01-30T18:22:41.443Z,-0.12
2023-01-30T18:25:16.495Z,-0.13
2023-01-30T18:27:52.518Z,-0.14
2023-01-30T18:33:09.507Z,-0.10
2023-01-30T18:35:44.880Z,-0.06
2023-01-30T18:38:14.284Z,-0.05
2023-01-30T18:40:42.865Z,-0.07
2023-01-30T18:43:11.433Z,-0.09
2023-01-30T18:45:43.589Z,-0.09
2023-01-30T18:48:13.913Z,-0.04
2023-01-30T18:50:49.838Z,-0.09
2023-01-30T18:53:22.362Z,-0.06
2023-01-30T18:55:55.854Z,-0.06
2023-01-30T18:58:30.633Z,-0.04
2023-01-30T19:01:00.027Z,-0.04
2023-01-30T19:03:33.188Z,-0.05
2023-01-30T19:06:11.990Z,-0.07
2023-01-30T19:08:47.961Z,-0.07
2023-01-30T19:11:42.713Z,-0.05
2023-01-30T19:14:17.645Z,-0.05
2023-01-30T19:16:52.250Z,-0.06
2023-01-30T19:19:26.021Z,-0.09
2023-01-30T19:21:57.743Z,-0.04
2023-01-30T19:24:26.291Z,-0.01
2023-01-30T19:26:54.967Z,0.01
2023-01-30T19:29:24.096Z,-0.04
2023-01-30T19:31:52.808Z,0.01
2023-01-30T19:34:21.465Z,-0.02
2023-01-30T19:36:51.767Z,-0.03
2023-01-30T19:39:21.518Z,-0.01
2023-01-30T19:41:49.991Z,0.03
2023-01-30T19:44:18.597Z,0.04
2023-01-30T19:46:47.110Z,0.01
2023-01-30T19:49:16.065Z,0.03
2023-01-30T19:51:44.712Z,0.05
2023-01-30T19:54:14.994Z,0.01
2023-01-30T19:56:47.619Z,0.02
2023-01-30T19:59:17.224Z,0.01
2023-01-30T20:01:46.481Z,0.03
2023-01-30T20:04:15.461Z,0.01
2023-01-30T20:06:49.754Z,0.01
2023-01-30T20:09:20.533Z,0.06
2023-01-30T20:11:49.416Z,0.02
2023-01-30T20:14:18.332Z,0.03
2023-01-30T20:16:47.193Z,0.04
2023-01-30T20:19:17.838Z,0.05
2023-01-30T20:21:47.212Z,0.10
2023-01-30T20:24:23.954Z,0.07
2023-01-30T20:26:58.542Z,0.03
2023-01-30T20:29:29.658Z,0.05
2023-01-30T20:32:11.323Z,0.05
2023-01-30T20:34:40.183Z,0.07
2023-01-30T20:37:09.531Z,0.08
2023-01-30T20:39:39.871Z,0.11
2023-01-30T20:42:10.215Z,0.09
2023-01-30T20:44:43.585Z,0.08
2023-01-30T20:47:15.835Z,0.10
2023-01-30T20:49:46.172Z,0.10
2023-01-30T20:52:16.213Z,0.09
2023-01-30T20:54:45.163Z,0.09
2023-01-30T20:57:18.608Z,0.11
2023-01-30T20:59:48.449Z,0.07
2023-01-30T21:02:17.604Z,0.08
2023-01-30T21:04:52.761Z,0.06
2023-01-30T21:07:23.316Z,0.10
2023-01-30T21:09:57.742Z,0.06
2023-01-30T21:12:28.335Z,0.03
2023-01-30T21:15:00.974Z,0.04
2023-01-30T21:17:32.444Z,0.05
2023-01-30T21:20:03.755Z,0.06
2023-01-30T21:22:35.502Z,0.06
2023-01-30T21:25:08.201Z,0.03
2023-01-30T21:27:43.985Z,0.05
2023-01-30T21:30:17.413Z,0.03
2023-01-30T21:32:47.128Z,-0.03
2023-01-30T21:35:16.263Z,-0.01
2023-01-30T21:38:03.764Z,0.02
2023-01-30T21:40:52.697Z,-0.07
2023-01-30T21:43:23.294Z,-0.12
2023-01-30T21:46:02.036Z,-0.15
2023-01-30T21:48:45.129Z,-0.16
2023-01-30T21:51:23.529Z,-0.22
2023-01-30T21:53:57.304Z,-0.18
2023-01-30T21:56:29.027Z,-0.15
2023-01-30T21:59:00.112Z,-0.20
2023-01-30T22:01:33.455Z,-0.18
2023-01-30T22:04:14.837Z,-0.15
2023-01-30T22:06:46.863Z,-0.20
2023-01-30T22:09:17.866Z,-0.19
2023-01-30T22:11:47.836Z,-0.20
2023-01-30T22:14:19.532Z,-0.19
2023-01-30T22:16:50.039Z,-0.19
2023-01-30T22:19:18.687Z,-0.20
2023-01-30T22:21:50.813Z,-0.20
2023-01-30T22:24:19.932Z,-0.27
2023-01-30T22:26:55.568Z,-0.31
2023-01-30T22:29:29.261Z,-0.30
2023-01-30T22:32:00.725Z,-0.30
2023-01-30T22:34:33.511Z,-0.28
2023-01-30T22:37:04.053Z,-0.27
2023-01-30T22:39:33.020Z,-0.27
2023-01-30T22:42:07.435Z,-0.29
2023-01-30T22:44:43.275Z,-0.28
2023-01-30T22:47:12.302Z,-0.31
2023-01-30T22:49:41.342Z,-0.30
2023-01-30T22:52:13.173Z,-0.28
2023-01-30T22:54:42.208Z,-0.29
2023-01-30T22:57:11.182Z,-0.28
2023-01-30T22:59:46.702Z,-0.30
2023-01-30T23:02:15.764Z,-0.30
2023-01-30T23:04:51.232Z,-0.28
2023-01-30T23:07:22.611Z,-0.29
2023-01-30T23:09:51.153Z,-0.28
2023-01-30T23:12:36.995Z,-0.31
2023-01-30T23:15:08.725Z,-0.31
2023-01-30T23:17:54.537Z,-0.32
2023-01-30T23:20:23.083Z,-0.34
2023-01-30T23:22:52.360Z,-0.34
2023-01-30T23:25:21.290Z,-0.36
2023-01-30T23:27:49.966Z,-0.41
2023-01-30T23:30:20.171Z,-0.42
2023-01-30T23:32:49.164Z,-0.46
2023-01-30T23:35:18.247Z,-0.46
2023-01-30T23:38:04.276Z,-0.48
2023-01-30T23:40:32.840Z,-0.49
2023-01-30T23:43:01.591Z,-0.48
2023-01-30T23:45:31.774Z,-0.49
2023-01-30T23:48:00.300Z,-0.49
2023-01-30T23:50:28.939Z,-0.48
2023-01-30T23:52:57.708Z,-0.50
2023-01-30T23:55:26.272Z,-0.53
2023-01-30T23:57:54.830Z,-0.56
